Change the Weather History Date:

Monday, April 8, 2013

  Actual Average Record
Temperature  
Mean Temperature 32 °F -  
Max Temperature 36 °F 44 °F 73 °F (1991)
Min Temperature 27 °F 26 °F 8 °F (1977)
Degree Days  
Heating Degree Days 34    
Moisture  
Dew Point 31 °F    
Average Humidity 95    
Maximum Humidity 99    
Minimum Humidity 81    
Precipitation  
Precipitation 0.00 in - - ()
Sea Level Pressure  
Sea Level Pressure 29.92 in    
Wind  
Wind Speed 7 mph (East)    
Max Wind Speed 15 mph    
Max Gust Speed 21 mph    
Visibility 8 miles    
Events Rain    
Averages and records for this station are not official NWS values.
T = Trace of Precipitation, MM = Missing Value Source: NWS Daily Summary

Daily Weather History Graph

Daily Weather History Graph

Search for Another Location

Airport or City:

Trip Planner

Search our weather history database for the weather conditions in past years. The results will help you decide how hot, cold, wet, or windy it might be!

Date:

Astronomy

Apr. 08, 2013 Rise Set
Actual Time 7:08 AM EDT 8:20 PM EDT
Civil Twilight 6:38 AM EDT 8:50 PM EDT
Nautical Twilight 6:01 AM EDT 9:27 PM EDT
Astronomical Twilight 5:22 AM EDT 10:06 PM EDT
Moon 6:03 AM EDT (4/8) 6:50 PM EDT (4/8)
Length of Visible Light 14h 12m
Length of Day
13h 11m
Waning Crescent, 3% of the Moon is Illuminated
Apr 8
Waning Crescent
Apr 10
New
Apr 18
First Quarter
Apr 25
Full
May 2
Last Quarter

Hourly Weather History & Observations

Time (EDT) Temp. Windchill Dew Point Humidity Pressure Visibility Wind Dir Wind Speed Gust Speed Precip Events Conditions
12:17 AM 28.2 °F - 27.9 °F 99% 30.03 in 10.0 mi Calm Calm - N/A   Clear
12:37 AM 27.3 °F 22.0 °F 26.8 °F 98% 30.01 in 10.0 mi East 4.6 mph - N/A   Clear
12:56 AM 28.2 °F 24.4 °F 27.5 °F 97% 30.01 in 10.0 mi ESE 3.5 mph - N/A   Clear
1:17 AM 28.9 °F 25.2 °F 28.2 °F 97% 30.01 in 10.0 mi East 3.5 mph - N/A   Clear
1:36 AM 28.6 °F 24.8 °F 28.0 °F 98% 30.01 in 10.0 mi SE 3.5 mph - N/A   Clear
1:56 AM 28.4 °F 23.3 °F 27.7 °F 97% 30.00 in 10.0 mi East 4.6 mph - N/A   Clear
2:17 AM 28.2 °F 22.0 °F 27.5 °F 97% 30.00 in 10.0 mi ESE 5.8 mph - N/A   Clear
2:36 AM 29.1 °F 24.1 °F 28.4 °F 97% 29.98 in 10.0 mi ESE 4.6 mph - N/A   Clear
2:56 AM 29.1 °F 24.1 °F 28.6 °F 98% 29.98 in 10.0 mi East 4.6 mph - N/A   Clear
3:17 AM 28.6 °F 24.8 °F 28.0 °F 98% 29.98 in 10.0 mi ESE 3.5 mph - N/A   Clear
3:36 AM 28.4 °F 23.3 °F 27.9 °F 98% 29.99 in 10.0 mi SE 4.6 mph - N/A   Clear
3:57 AM 28.0 °F 22.8 °F 27.7 °F 99% 29.98 in 10.0 mi ESE 4.6 mph - N/A   Clear
4:17 AM 27.9 °F 21.5 °F 27.5 °F 99% 29.98 in 10.0 mi East 5.8 mph - N/A   Clear
4:36 AM 29.3 °F 24.3 °F 28.9 °F 99% 29.96 in 10.0 mi ESE 4.6 mph - N/A   Clear
4:57 AM 28.9 °F 22.8 °F 28.4 °F 98% 29.97 in 10.0 mi ESE 5.8 mph - N/A   Clear
5:17 AM 28.2 °F 22.0 °F 27.5 °F 97% 29.97 in 10.0 mi East 5.8 mph - N/A   Clear
5:36 AM 28.9 °F 23.9 °F 28.4 °F 98% 29.98 in 10.0 mi East 4.6 mph - N/A   Clear
5:57 AM 29.1 °F 25.4 °F 28.4 °F 97% 29.98 in 10.0 mi East 3.5 mph - N/A   Clear
6:16 AM 27.5 °F 22.2 °F 26.8 °F 97% 29.98 in 10.0 mi East 4.6 mph - N/A   Clear
6:36 AM 27.1 °F 21.8 °F 26.2 °F 96% 29.97 in 10.0 mi East 4.6 mph - N/A   Clear
6:57 AM 29.5 °F 23.4 °F 28.4 °F 96% 29.96 in 10.0 mi East 5.8 mph - N/A   Clear
7:16 AM 28.6 °F 23.5 °F 27.9 °F 97% 29.96 in 10.0 mi East 4.6 mph - N/A   Clear
7:37 AM 30.9 °F 25.2 °F 30.0 °F 96% 29.95 in 10.0 mi East 5.8 mph - N/A   Clear
7:57 AM 31.5 °F 24.9 °F 30.2 °F 95% 29.96 in 10.0 mi ESE 6.9 mph - N/A   Clear
8:16 AM 32.0 °F 26.4 °F 30.9 °F 96% 29.96 in 10.0 mi East 5.8 mph - N/A   Clear
8:37 AM 32.9 °F 26.7 °F 31.6 °F 95% 29.96 in 10.0 mi East 6.9 mph - N/A   Clear
8:57 AM 33.6 °F 25.6 °F 32.0 °F 94% 29.95 in 10.0 mi East 10.4 mph - N/A   Clear
9:16 AM 34.2 °F 26.2 °F 32.0 °F 92% 29.94 in 10.0 mi East 10.4 mph - N/A   Clear
9:37 AM 34.2 °F 25.7 °F 31.5 °F 90% 29.92 in 10.0 mi East 11.5 mph - N/A   Clear
9:57 AM 34.7 °F 26.9 °F 31.6 °F 89% 29.92 in 10.0 mi East 10.4 mph 18.4 mph N/A   Clear
10:16 AM 35.6 °F 27.5 °F 32.0 °F 87% 29.91 in 10.0 mi East 11.5 mph - N/A   Clear
10:37 AM 35.6 °F 28.0 °F 31.8 °F 86% 29.90 in 10.0 mi East 10.4 mph - N/A   Clear
10:56 AM 35.6 °F 28.6 °F 31.6 °F 85% 29.90 in 10.0 mi East 9.2 mph - N/A   Clear
11:16 AM 35.6 °F 27.5 °F 31.1 °F 84% 29.89 in 10.0 mi East 11.5 mph - N/A   Clear
11:37 AM 36.3 °F 28.9 °F 31.3 °F 82% 29.89 in 10.0 mi East 10.4 mph - N/A   Clear
11:56 AM 36.5 °F 28.7 °F 31.6 °F 83% 29.89 in 10.0 mi ENE 11.5 mph 17.3 mph N/A   Clear
12:17 PM 36.5 °F 28.2 °F 31.3 °F 81% 29.87 in 10.0 mi ENE 12.7 mph 19.6 mph N/A   Mostly Cloudy
12:37 PM 36.7 °F 28.0 °F 31.8 °F 83% 29.86 in 10.0 mi ENE 13.8 mph 18.4 mph N/A   Overcast
12:56 PM 36.7 °F 29.4 °F 32.0 °F 83% 29.86 in 10.0 mi East 10.4 mph 16.1 mph N/A   Overcast
1:17 PM 36.0 °F 29.6 °F 32.0 °F 86% 29.87 in 10.0 mi ENE 8.1 mph - N/A   Overcast
1:37 PM 36.1 °F 27.3 °F 32.4 °F 86% 29.88 in 10.0 mi East 13.8 mph - N/A   Overcast
1:56 PM 36.1 °F 26.9 °F 32.9 °F 88% 29.86 in 10.0 mi East 15.0 mph 18.4 mph N/A   Overcast
2:17 PM 36.1 °F 26.9 °F 33.3 °F 89% 29.85 in 10.0 mi ENE 15.0 mph 19.6 mph N/A   Overcast
2:36 PM 36.5 °F 28.2 °F 33.1 °F 87% 29.83 in 10.0 mi ENE 12.7 mph 20.7 mph N/A Rain Light Rain
2:56 PM 36.0 °F 27.1 °F 33.8 °F 92% 29.83 in 7.0 mi ENE 13.8 mph 19.6 mph N/A Rain Light Rain
3:17 PM 35.6 °F 26.6 °F 34.0 °F 94% 29.82 in 4.0 mi ENE 13.8 mph 19.6 mph N/A Rain Light Rain
3:36 PM 35.6 °F 27.1 °F 34.3 °F 95% 29.81 in 5.0 mi ENE 12.7 mph 18.4 mph N/A Rain Light Rain
3:57 PM 35.6 °F 27.1 °F 34.7 °F 97% 29.81 in 5.0 mi ENE 12.7 mph 18.4 mph N/A Rain Light Rain
4:17 PM 35.6 °F 27.1 °F 34.5 °F 96% 29.81 in 7.0 mi ENE 12.7 mph 18.4 mph N/A Rain Light Rain
4:36 PM 35.6 °F 26.6 °F 34.3 °F 95% 29.82 in 7.0 mi ENE 13.8 mph 20.7 mph N/A Rain Light Rain
4:57 PM 35.6 °F 27.1 °F 34.3 °F 95% 29.82 in 5.0 mi ENE 12.7 mph 20.7 mph N/A Rain Light Rain
5:17 PM 35.6 °F 27.5 °F 34.7 °F 97% 29.83 in 7.0 mi ENE 11.5 mph 18.4 mph N/A   Drizzle
5:36 PM 35.6 °F 27.5 °F 34.7 °F 97% 29.84 in 5.0 mi ENE 11.5 mph 18.4 mph N/A   Drizzle
5:57 PM 35.6 °F 27.5 °F 34.7 °F 97% 29.85 in 5.0 mi ENE 11.5 mph 17.3 mph N/A Rain Light Rain
6:16 PM 34.9 °F 25.7 °F 34.2 °F 97% 29.86 in 4.0 mi ENE 13.8 mph 18.4 mph N/A Rain Light Rain
6:36 PM 34.3 °F 25.9 °F 33.8 °F 98% 29.87 in 7.0 mi ENE 11.5 mph - N/A Rain Light Rain
6:57 PM 34.2 °F 25.7 °F 33.4 °F 97% 29.88 in 5.0 mi ENE 11.5 mph 18.4 mph N/A Rain Rain
7:16 PM 34.3 °F 24.6 °F 33.8 °F 98% 29.89 in 5.0 mi ENE 15.0 mph 18.4 mph N/A Rain Rain
7:37 PM 34.3 °F 25.0 °F 33.8 °F 98% 29.89 in 5.0 mi East 13.8 mph 19.6 mph N/A Rain Rain
7:57 PM 34.3 °F 25.9 °F 33.8 °F 98% 29.89 in 5.0 mi East 11.5 mph 17.3 mph N/A Rain Rain
8:16 PM 34.2 °F 26.2 °F 33.4 °F 97% 29.90 in 5.0 mi East 10.4 mph - N/A Rain Light Rain
8:37 PM 34.3 °F 26.5 °F 33.6 °F 97% 29.91 in 7.0 mi East 10.4 mph 17.3 mph N/A   Light Drizzle
8:56 PM 34.2 °F 26.8 °F 33.4 °F 97% 29.92 in 7.0 mi East 9.2 mph - N/A   Light Drizzle
9:16 PM 34.2 °F 27.5 °F 33.8 °F 99% 29.93 in 7.0 mi East 8.1 mph - N/A   Overcast
9:37 PM 34.2 °F 26.8 °F 33.8 °F 99% 29.94 in 7.0 mi East 9.2 mph - N/A   Overcast
9:56 PM 34.2 °F 27.5 °F 33.8 °F 99% 29.95 in 7.0 mi East 8.1 mph - N/A   Overcast
10:17 PM 34.2 °F 29.0 °F 33.8 °F 99% 29.96 in 10.0 mi ENE 5.8 mph - N/A   Overcast
10:36 PM 34.2 °F 30.0 °F 33.8 °F 99% 29.98 in 7.0 mi NNE 4.6 mph - N/A   Overcast
10:57 PM 34.2 °F - 33.8 °F 99% 29.99 in 5.0 mi Calm Calm - N/A   Overcast
11:17 PM 34.2 °F - 33.8 °F 99% 30.00 in 4.0 mi Calm Calm - N/A   Overcast
11:36 PM 33.8 °F 30.8 °F 33.4 °F 99% 30.00 in 3.0 mi NNE 3.5 mph - N/A   Overcast
11:57 PM 33.8 °F - 33.4 °F 99% 30.01 in 5.0 mi Calm Calm - N/A   Overcast